地図

経路データ

SID SEASON NUMBER BASIN SUBBASIN NAME ISO_TIME NATURE LAT LON WMO_WIND WMO_PRES WMO_AGENCY TRACK_TYPE DIST2LAND LANDFALL IFLAG USA_AGENCY USA_ATCF_ID USA_LAT USA_LON USA_RECORD USA_STATUS USA_WIND USA_PRES USA_SSHS USA_R34_NE USA_R34_SE USA_R34_SW USA_R34_NW USA_R50_NE USA_R50_SE USA_R50_SW USA_R50_NW USA_R64_NE USA_R64_SE USA_R64_SW USA_R64_NW USA_POCI USA_ROCI USA_RMW USA_EYE TOKYO_LAT TOKYO_LON TOKYO_GRADE TOKYO_WIND TOKYO_PRES TOKYO_R50_DIR TOKYO_R50_LONG TOKYO_R50_SHORT TOKYO_R30_DIR TOKYO_R30_LONG TOKYO_R30_SHORT TOKYO_LAND CMA_LAT CMA_LON CMA_CAT CMA_WIND CMA_PRES HKO_LAT HKO_LON HKO_CAT HKO_WIND HKO_PRES NEWDELHI_LAT NEWDELHI_LON NEWDELHI_GRADE NEWDELHI_WIND NEWDELHI_PRES NEWDELHI_CI NEWDELHI_DP NEWDELHI_POCI REUNION_LAT REUNION_LON REUNION_TYPE REUNION_WIND REUNION_PRES REUNION_TNUM REUNION_CI REUNION_RMW REUNION_R34_NE REUNION_R34_SE REUNION_R34_SW REUNION_R34_NW REUNION_R50_NE REUNION_R50_SE REUNION_R50_SW REUNION_R50_NW REUNION_R64_NE REUNION_R64_SE REUNION_R64_SW REUNION_R64_NW BOM_LAT BOM_LON BOM_TYPE BOM_WIND BOM_PRES BOM_TNUM BOM_CI BOM_RMW BOM_R34_NE BOM_R34_SE BOM_R34_SW BOM_R34_NW BOM_R50_NE BOM_R50_SE BOM_R50_SW BOM_R50_NW BOM_R64_NE BOM_R64_SE BOM_R64_SW BOM_R64_NW BOM_ROCI BOM_POCI BOM_EYE BOM_POS_METHOD BOM_PRES_METHOD NADI_LAT NADI_LON NADI_CAT NADI_WIND NADI_PRES WELLINGTON_LAT WELLINGTON_LON WELLINGTON_WIND WELLINGTON_PRES DS824_LAT DS824_LON DS824_STAGE DS824_WIND DS824_PRES TD9636_LAT TD9636_LON TD9636_STAGE TD9636_WIND TD9636_PRES TD9635_LAT TD9635_LON TD9635_WIND TD9635_PRES TD9635_ROCI NEUMANN_LAT NEUMANN_LON NEUMANN_CLASS NEUMANN_WIND NEUMANN_PRES MLC_LAT MLC_LON MLC_CLASS MLC_WIND MLC_PRES USA_GUST BOM_GUST BOM_GUST_PER REUNION_GUST REUNION_GUST_PER USA_SEAHGT USA_SEARAD_NE USA_SEARAD_SE USA_SEARAD_SW USA_SEARAD_NW STORM_SPEED STORM_DIR
1985097S09076 1985 33 SI MM HELISAONINA 1985-04-07 06:00:00 NR -9.20000 76.1000 main 1764 1764 __________O___ -1 -9.20000 76.1000 1 1 0
1985097S09076 1985 33 SI MM HELISAONINA 1985-04-07 09:00:00 NR -9.26093 76.0828 main 1774 1774 __________P___ -1 -9.26093 76.0828 1 1 194
1985097S09076 1985 33 SI MM HELISAONINA 1985-04-07 12:00:00 NR -9.32749 76.0625 main 1774 1774 __________P___ -1 -9.32749 76.0625 1 2 193
1985097S09076 1985 33 SI MM HELISAONINA 1985-04-07 15:00:00 NR -9.40531 76.0359 main 1788 1788 __________P___ -1 -9.40531 76.0359 1 2 198
1985097S09076 1985 33 SI MM HELISAONINA 1985-04-07 18:00:00 NR -9.50000 76.0000 main 1799 1799 __________O___ -1 -9.50000 76.0000 1 2 201
1985097S09076 1985 33 SI MM HELISAONINA 1985-04-07 21:00:00 NR -9.61469 75.9531 main 1810 1810 __________P___ -1 -9.61469 75.9531 1 3 202
1985097S09076 1985 33 SI MM HELISAONINA 1985-04-08 00:00:00 NR -9.74251 75.9000 main 1824 1824 __________P___ -1 -9.74251 75.9000 1 3 202
1985097S09076 1985 33 SI MM HELISAONINA 1985-04-08 03:00:00 NR -9.87407 75.8469 main 1848 1848 __________P___ -1 -9.87407 75.8469 1 3 200
1985097S09076 1985 33 SI MM HELISAONINA 1985-04-08 06:00:00 NR -10.0000 75.8000 main 1859 1859 __________O___ -1 -10.0000 75.8000 1 2 199
1985097S09076 1985 33 SI MM HELISAONINA 1985-04-08 09:00:00 NR -10.1072 75.7678 main 1870 1870 __________P___ -1 -10.1072 75.7678 1 2 197
1985097S09076 1985 33 SI MM HELISAONINA 1985-04-08 12:00:00 NR -10.2075 75.7425 main 1884 1884 __________P___ -1 -10.2075 75.7425 1 2 193
1985097S09076 1985 33 SI MM HELISAONINA 1985-04-08 15:00:00 NR -10.3041 75.7209 main 1894 1894 __________P___ -1 -10.3041 75.7209 1 2 193
1985097S09076 1985 33 SI MM HELISAONINA 1985-04-08 18:00:00 NR -10.4000 75.7000 main 1905 1905 __________O___ -1 -10.4000 75.7000 1 2 194
1985097S09076 1985 33 SI MM HELISAONINA 1985-04-08 21:00:00 NR -10.5000 75.6750 main 1916 1916 __________P___ -1 -10.5000 75.6750 1 2 197
1985097S09076 1985 33 SI MM HELISAONINA 1985-04-09 00:00:00 NR -10.6000 75.6500 main 1926 1930 __________P___ -1 -10.6000 75.6500 1 2 197
1985097S09076 1985 33 SI MM HELISAONINA 1985-04-09 03:00:00 NR -10.7000 75.6250 main 1940 1940 __________P___ -1 -10.7000 75.6250 1 2 197
1985097S09076 1985 33 SI MM HELISAONINA 1985-04-09 06:00:00 NR -10.8000 75.6000 main 1951 1951 __________O___ -1 -10.8000 75.6000 1 2 193
1985097S09076 1985 33 SI MM HELISAONINA 1985-04-09 09:00:00 NR -10.9040 75.5912 main 1962 1962 __________P___ -1 -10.9040 75.5912 1 2 0
1985097S09076 1985 33 SI MM HELISAONINA 1985-04-09 12:00:00 NR -11.0075 75.5799 main 1972 1972 __________P___ -1 -11.0075 75.5799 1 2 189
1985097S09076 1985 33 SI MM HELISAONINA 1985-04-09 15:00:00 NR -11.1072 75.5537 main 1983 1983 __________P___ -1 -11.1072 75.5537 1 2 203
1985097S09076 1985 33 SI MM HELISAONINA 1985-04-09 18:00:00 NR -11.2000 75.5000 main 1997 1997 __________O___ -1 -11.2000 75.5000 1 2 213
1985097S09076 1985 33 SI MM HELISAONINA 1985-04-09 21:00:00 NR -11.2739 75.4483 main 2011 2011 __________P___ -1 -11.2739 75.4483 1 2 224
1985097S09076 1985 33 SI MM HELISAONINA 1985-04-10 00:00:00 NR -11.3422 75.3622 main 2011 2011 __________P___ -1 -11.3422 75.3622 1 3 238
1985097S09076 1985 33 SI MM HELISAONINA 1985-04-10 03:00:00 NR -11.4144 75.2201 main 2028 2028 __________P___ -1 -11.4144 75.2201 1 9 240
1985097S09076 1985 33 SI MM HELISAONINA 1985-04-10 06:00:00 NR -11.7800 74.5800 36 reunion main 2029 1971 _____O____O___ -1 -12.9000 72.9000 99 36 9.90000 -11.5000 75.0000 1 13 244
1985097S09076 1985 33 SI MM HELISAONINA 1985-04-10 09:00:00 NR -11.9792 74.0346 main 1962 1911 _____P____P___ -1 -12.7000 72.7050 99 36 -11.6187 74.6995 1 12 263
1985097S09076 1985 33 SI MM HELISAONINA 1985-04-10 12:00:00 TS -11.9222 73.3756 36 reunion main 1911 1864 O____O____P_O_ jtwc_sh SH331985 -11.4000 72.8000 XX 25 -5 -12.5000 72.5000 99 36 9.90000 -11.7499 74.3201 1 -11.4000 72.8000 TC 25 12 275
1985097S09076 1985 33 SI MM HELISAONINA 1985-04-10 15:00:00 TS -11.8754 72.8519 main 1864 1824 P____P____P_P_ SH331985 -11.4326 72.4025 XX 27 -5 -12.3124 72.2724 99 36 -11.8811 73.8807 1 -11.4326 72.4025 TC 27 10 275
1985097S09076 1985 33 SI MM HELISAONINA 1985-04-10 18:00:00 TS -11.8429 72.4000 36 reunion main 1824 1781 O____O____O_O_ jtwc_sh SH331985 -11.5000 72.0000 XX 30 -5 -12.2000 72.0000 99 36 9.90000 -12.0000 73.4000 1 -11.5000 72.0000 TC 30 9 270
1985097S09076 1985 33 SI MM HELISAONINA 1985-04-10 21:00:00 TS -11.8678 71.9260 main 1772 1729 P____P____P_P_ SH331985 -11.6275 71.5925 XX 32 -5 -12.1750 71.6574 99 40 -12.0412 72.8617 1 -11.6275 71.5925 TC 32 9 260
1985097S09076 1985 33 SI MM HELISAONINA 1985-04-11 00:00:00 TS -11.9940 71.4992 44 984 reunion main 1729 1681 O____O____P_O_ jtwc_sh SH331985 -11.8000 71.2000 XX 35 -5 -12.3000 71.3000 3 44 984 3.50000 3.50000 -12.0758 72.2968 1 -11.8000 71.2000 TC 35 9 249
1985097S09076 1985 33 SI MM HELISAONINA 1985-04-11 03:00:00 TS -12.1768 71.1034 main 1681 1641 P____P____P_P_ SH331985 -11.9850 70.8350 XX 37 -5 -12.5900 70.9850 3 44 984 -12.1475 71.7586 1 -11.9850 70.8350 TC 37 9 240
1985097S09076 1985 33 SI MM HELISAONINA 1985-04-11 06:00:00 TS -12.4250 70.7500 44 984 reunion main 1641 1596 O____O____O_O_ jtwc_sh SH331985 -12.2000 70.5000 XX 40 -5 -13.0000 70.7000 3 44 984 3.50000 3.50000 -12.3000 71.3000 2 50 -12.2000 70.5000 TC 40 8 227
1985097S09076 1985 33 SI MM HELISAONINA 1985-04-11 09:00:00 TS -12.7491 70.4745 main 1596 1544 P____P____P_P_ SH331985 -12.4424 70.1925 XX 42 -5 -13.4873 70.4800 3 48 980 -12.6243 71.0333 2 52 -12.4424 70.1925 TC 42 8 219
1985097S09076 1985 33 SI MM HELISAONINA 1985-04-11 12:00:00 TS -13.0815 70.2106 52 976 reunion main 1544 1505 O____O____P_O_ jtwc_sh SH331985 -12.7000 69.9000 XX 45 -5 -13.9000 70.2000 3 52 976 4.00000 4.00000 -13.0262 70.8422 2 55 -12.7000 69.9000 TC 45 8 224
1985097S09076 1985 33 SI MM HELISAONINA 1985-04-11 15:00:00 TS -13.3388 69.8924 main 1505 1459 P____P____P_P_ SH331985 -12.9425 69.5924 XX 47 -5 -14.0301 69.7297 3 57 971 -13.4400 70.6551 2 57 -12.9425 69.5924 TC 47 8 233
1985097S09076 1985 33 SI MM HELISAONINA 1985-04-11 18:00:00 TS -13.5750 69.5500 62 966 reunion main 1459 1411 O____O____O_O_ jtwc_sh SH331985 -13.2000 69.3000 XX 50 -5 -14.1000 69.2000 3 62 966 4.50000 4.50000 -13.8000 70.4000 2 60 -13.2000 69.3000 TC 50 8 234
1985097S09076 1985 33 SI MM HELISAONINA 1985-04-11 21:00:00 TS -13.8268 69.2030 main 1411 1366 P____P____P_P_ SH331985 -13.4924 69.0499 XX 55 -5 -14.3273 68.7500 3 62 966 -13.9949 69.9623 2 63 -13.4924 69.0499 TC 55 9 234
1985097S09076 1985 33 SI MM HELISAONINA 1985-04-12 00:00:00 TS -14.0827 68.8379 62 966 reunion main 1356 1317 O____O____P_O_ jtwc_sh SH331985 -13.8000 68.8000 XX 60 -5 -14.6000 68.3000 3 62 966 4.50000 4.50000 -14.1307 69.4517 2 66 -13.8000 68.8000 TC 60 9 236
1985097S09076 1985 33 SI MM HELISAONINA 1985-04-12 03:00:00 TS -14.3196 68.4381 main 1308 1254 P____P____P_P_ SH331985 -14.0999 68.5224 XX 62 -5 -14.8275 67.7923 3 67 960 -14.2511 68.9153 2 69 -14.0999 68.5224 TC 62 9 238
1985097S09076 1985 33 SI MM HELISAONINA 1985-04-12 06:00:00 TS -14.5750 68.0250 72 954 reunion main 1254 1200 O____O____O_O_ jtwc_sh SH331985 -14.4000 68.2000 XX 65 -5 -15.1000 67.3000 4 72 954 5.00000 5.00000 -14.4000 68.4000 4 72 -14.4000 68.2000 TC 65 10 234
1985097S09076 1985 33 SI MM HELISAONINA 1985-04-12 09:00:00 TS -14.8797 67.6262 main 1200 1145 P____P____P_P_ SH331985 -14.6849 67.8298 XX 70 -5 -15.5224 66.8702 4 72 954 -14.6264 67.9750 4 74 -14.6849 67.8298 TC 70 10 231
1985097S09076 1985 33 SI MM HELISAONINA 1985-04-12 12:00:00 TS -15.1973 67.2192 72 954 reunion main 1145 1092 O____O____P_O_ jtwc_sh SH331985 -15.0000 67.4000 XX 75 -5 -15.9000 66.5000 4 72 954 5.00000 5.00000 -14.8893 67.5770 4 76 -15.0000 67.4000 TC 75 10 232
1985097S09076 1985 33 SI MM HELISAONINA 1985-04-12 15:00:00 TS -15.4918 66.8106 main 1092 1038 P____P____P_P_ SH331985 -15.3924 66.9225 XX 80 -5 -15.9998 66.2069 4 72 954 -15.1827 67.1905 4 78 -15.3924 66.9225 TC 80 10 233
1985097S09076 1985 33 SI MM HELISAONINA 1985-04-12 18:00:00 TS -15.8000 66.3750 72 954 reunion main 1038 969 O____O____O_O_ jtwc_sh SH331985 -15.8000 66.4000 XX 85 -5 -16.1000 65.9000 4 72 954 5.00000 5.00000 -15.5000 66.8000 4 80 -15.8000 66.4000 TC 85 11 233
1985097S09076 1985 33 SI MM HELISAONINA 1985-04-12 21:00:00 TS -16.1794 65.8757 main 969 907 P____P____P_P_ SH331985 -16.1726 65.8350 XX 87 -5 -16.5076 65.4581 4 72 954 -15.8649 66.3746 4 81 -16.1726 65.8350 TC 87 12 232
1985097S09076 1985 33 SI MM HELISAONINA 1985-04-13 00:00:00 TS -16.5362 65.3858 72 954 reunion main 907 853 O____O____P_O_ jtwc_sh SH331985 -16.5000 65.3000 XX 90 -5 -16.9000 65.0000 4 72 954 5.00000 5.00000 -16.2449 65.9433 4 82 -16.5000 65.3000 TC 90 11 235
1985097S09076 1985 33 SI MM HELISAONINA 1985-04-13 03:00:00 TS -16.7874 64.9630 main 853 805 P____P____P_P_ SH331985 -16.7723 64.8623 XX 92 -5 -17.0024 64.6122 4 72 954 -16.6024 65.5152 4 83 -16.7723 64.8623 TC 92 9 240
1985097S09076 1985 33 SI MM HELISAONINA 1985-04-13 06:00:00 TS -16.9750 64.6000 72 954 reunion main 805 772 O____O____O_O_ jtwc_sh SH331985 -17.0000 64.5000 XX 95 -5 -17.0000 64.3000 4 72 954 5.00000 5.00000 -16.9000 65.1000 4 85 -17.0000 64.5000 TC 95 7 242
1985097S09076 1985 33 SI MM HELISAONINA 1985-04-13 09:00:00 TS -17.1330 64.2801 main 772 733 P____P____P_P_ SH331985 -17.2149 64.1774 XX 97 -5 -17.0123 64.0923 4 72 954 -17.0897 64.6734 4 86 -17.2149 64.1774 TC 97 7 242
1985097S09076 1985 33 SI MM HELISAONINA 1985-04-13 12:00:00 TS -17.2794 63.9917 72 954 reunion main 733 700 O____O____P_O_ jtwc_sh SH331985 -17.4000 63.9000 XX 100 -5 -17.1000 63.9000 4 72 954 5.00000 5.00000 -17.2176 64.2667 4 87 -17.4000 63.9000 TC 100 7 241
1985097S09076 1985 33 SI MM HELISAONINA 1985-04-13 15:00:00 TS -17.4492 63.6836 main 700 661 P____P____P_P_ SH331985 -17.5500 63.6199 XX 102 -5 -17.3851 63.5928 4 77 947 -17.3117 63.9017 4 88 -17.5500 63.6199 TC 102 6 237
1985097S09076 1985 33 SI MM HELISAONINA 1985-04-13 18:00:00 TS -17.6250 63.4250 82 941 reunion main 661 642 O____O____O_O_ jtwc_sh SH331985 -17.7000 63.4000 XX 105 -5 -17.7000 63.3000 4 82 941 5.50000 5.50000 -17.4000 63.6000 4 90 -17.7000 63.4000 TC 105 5 231
1985097S09076 1985 33 SI MM HELISAONINA 1985-04-13 21:00:00 TS -17.7894 63.2429 main 632 618 P____P____P_P_ SH331985 -17.9000 63.2475 XX 107 -5 -17.8574 63.1198 4 82 941 -17.5003 63.3567 4 91 -17.9000 63.2475 TC 107 4 219
1985097S09076 1985 33 SI MM HELISAONINA 1985-04-14 00:00:00 TS -17.9512 63.1450 82 941 reunion main 613 608 O____O____P_O_ jtwc_sh SH331985 -18.1000 63.2000 XX 110 -5 -18.0000 63.0000 4 82 941 5.50000 5.50000 -17.6046 63.1799 4 93 -18.1000 63.2000 TC 110 4 201
1985097S09076 1985 33 SI MM HELISAONINA 1985-04-14 03:00:00 TS -18.1167 63.1127 main 608 599 P____P____P_P_ SH331985 -18.2500 63.2625 XX 107 -5 -18.2350 62.8626 4 72 953 -17.7316 63.0631 4 95 -18.2500 63.2625 TC 107 4 177
1985097S09076 1985 33 SI MM HELISAONINA 1985-04-14 06:00:00 TS -18.3000 63.1500 62 966 reunion main 609 601 O____O____O_O_ jtwc_sh SH331985 -18.4000 63.4000 XX 105 -5 -18.5000 62.8000 3 62 966 4.50000 4.50000 -17.9000 63.0000 4 97 -18.4000 63.4000 TC 105 4 167
1985097S09076 1985 33 SI MM HELISAONINA 1985-04-14 09:00:00 TS -18.5531 63.2138 main 597 597 P____P____P_P_ SH331985 -18.6300 63.5349 XX 102 -5 -18.7799 62.8474 3 57 971 -18.1723 62.9381 4 91 -18.6300 63.5349 TC 102 5 160
1985097S09076 1985 33 SI MM HELISAONINA 1985-04-14 12:00:00 TS -18.7699 63.3325 52 976 reunion main 600 600 O____O____P_O_ jtwc_sh SH331985 -18.8000 63.7000 XX 100 -5 -19.0000 63.0000 3 52 976 4.00000 4.00000 -18.4797 62.9299 4 86 -18.8000 63.7000 TC 100 4 139
1985097S09076 1985 33 SI MM HELISAONINA 1985-04-14 15:00:00 TS -18.8718 63.5023 main 617 617 P____P____P_P_ SH331985 -18.8100 63.9000 XX 97 -5 -19.0950 63.2275 3 48 980 -18.7723 62.9817 4 80 -18.8100 63.9000 TC 97 4 107
1985097S09076 1985 33 SI MM HELISAONINA 1985-04-14 18:00:00 TS -18.8750 63.7000 44 984 reunion main 637 637 O____O____O_O_ jtwc_sh SH331985 -18.7000 64.1000 XX 95 -5 -19.1000 63.5000 3 44 984 3.50000 3.50000 -19.0000 63.1000 4 75 -18.7000 64.1000 TC 95 4 82
1985097S09076 1985 33 SI MM HELISAONINA 1985-04-14 21:00:00 TS -18.8179 63.9206 main 660 660 P____P____P_P_ SH331985 -18.5300 64.2876 XX 92 -5 -19.0575 63.7651 3 40 987 -19.1542 63.3421 4 66 -18.5300 64.2876 TC 92 4 67
1985097S09076 1985 33 SI MM HELISAONINA 1985-04-15 00:00:00 TS -18.7077 64.1094 36 991 reunion main 684 684 O____O____P_O_ jtwc_sh SH331985 -18.3000 64.4000 XX 90 -5 -19.0000 64.0000 3 36 991 3.00000 3.00000 -19.2307 63.6376 4 57 -18.3000 64.4000 TC 90 4 56
1985097S09076 1985 33 SI MM HELISAONINA 1985-04-15 03:00:00 TS -18.5978 64.2606 main 707 707 P____P____P_P_ SH331985 -18.0498 64.4401 XX 87 -5 -19.0749 64.2478 3 36 991 -19.2167 63.9143 4 48 -18.0498 64.4401 TC 87 3 25
1985097S09076 1985 33 SI MM HELISAONINA 1985-04-15 06:00:00 TS -18.4250 64.2500 36 991 reunion main 714 695 O____O____O_O_ jtwc_sh SH331985 -17.8000 64.3000 XX 85 -5 -19.0000 64.3000 3 36 991 3.00000 3.00000 -19.1000 64.1000 2 40 -17.8000 64.3000 TC 85 5 335
1985097S09076 1985 33 SI MM HELISAONINA 1985-04-15 09:00:00 TS -18.1212 64.0213 main 695 670 P____P____P_P_ SH331985 -17.5699 63.9398 XX 80 -5 -18.4949 64.0194 3 32 994 -18.8502 64.1864 2 38 -17.5699 63.9398 TC 80 9 316
1985097S09076 1985 33 SI MM HELISAONINA 1985-04-15 12:00:00 TS -17.8021 63.6157 28 997 reunion main 670 633 O____O____P_O_ jtwc_sh SH331985 -17.4000 63.4000 XX 75 -5 -17.9000 63.5000 2 28 997 2.50000 2.50000 -18.5084 64.1630 2 37 -17.4000 63.4000 TC 75 10 302
1985097S09076 1985 33 SI MM HELISAONINA 1985-04-15 15:00:00 TS -17.5832 63.1121 main 633 597 P____P____P_P_ SH331985 -17.3275 62.7802 XX 70 -5 -17.5402 62.8801 2 26 998 -18.1374 64.0081 2 36 -17.3275 62.7802 TC 70 11 290
1985097S09076 1985 33 SI MM HELISAONINA 1985-04-15 18:00:00 TS -17.4250 62.5250 24 1000 reunion main 588 550 O____O____O_O_ jtwc_sh SH331985 -17.3000 62.1000 XX 65 -5 -17.3000 62.2000 2 24 1000 2.00000 2.00000 -17.8000 63.7000 2 35 -17.3000 62.1000 TC 65 12 284
1985097S09076 1985 33 SI MM HELISAONINA 1985-04-15 21:00:00 TS -17.3089 61.9384 main 542 499 P____P____P_P_ SH331985 -17.2649 61.4427 XX 60 -5 -17.1194 61.6303 2 22 1001 -17.5866 63.2380 2 32 -17.2649 61.4427 TC 60 12 281
1985097S09076 1985 33 SI MM HELISAONINA 1985-04-16 00:00:00 TS -17.2033 61.3075 20 1003 reunion main 499 461 O____O____P_O_ jtwc_sh SH331985 -17.2000 60.8000 XX 55 -5 -17.0000 61.0000 2 20 1003 1.50000 1.50000 -17.4133 62.6300 2 30 -17.2000 60.8000 TC 55 13 280
1985097S09076 1985 33 SI MM HELISAONINA 1985-04-16 03:00:00 TS -17.0777 60.6112 main 453 423 P____P____P_P_ SH331985 -17.0648 60.1849 XX 50 -5 -16.9231 60.1428 2 20 1003 -17.2583 61.9320 2 27 -17.0648 60.1849 TC 50 14 282
1985097S09076 1985 33 SI MM HELISAONINA 1985-04-16 06:00:00 TS -16.9250 59.9250 20 1003 reunion main 426 410 O____O____O_O_ jtwc_sh SH331985 -16.9000 59.6000 XX 45 -5 -16.8000 59.3000 2 20 1003 1.50000 1.50000 -17.1000 61.2000 1 25 -16.9000 59.6000 TC 45 13 286
1985097S09076 1985 33 SI MM HELISAONINA 1985-04-16 09:00:00 TS -16.7257 59.3141 main 416 408 P____P____P_P_ SH331985 -16.7499 59.0351 XX 42 -5 -16.4995 58.6973 2 20 1003 -16.9035 60.4890 1 25 -16.7499 59.0351 TC 42 12 289
1985097S09076 1985 33 SI MM HELISAONINA 1985-04-16 12:00:00 TS -16.5251 58.7406 20 1003 reunion main 416 411 O____O____P_O_ jtwc_sh SH331985 -16.6000 58.5000 XX 40 -5 -16.2000 58.2000 2 20 1003 1.50000 1.50000 -16.7006 59.7624 1 25 -16.6000 58.5000 TC 40 11 288
1985097S09076 1985 33 SI MM HELISAONINA 1985-04-16 15:00:00 TS -16.3761 58.1776 main 417 416 P____P____P_P_ SH331985 -16.4499 57.9851 XX 37 -5 -16.1074 57.6856 2 20 1003 -16.4973 59.0546 1 25 -16.4499 57.9851 TC 37 11 286
1985097S09076 1985 33 SI MM HELISAONINA 1985-04-16 18:00:00 TS -16.2250 57.6500 20 1003 reunion main 436 436 O____O____O_O_ jtwc_sh SH331985 -16.3000 57.5000 XX 35 -5 -16.0000 57.2000 2 20 1003 1.50000 1.50000 -16.3000 58.4000 1 25 -16.3000 57.5000 TC 35 10 291
1985097S09076 1985 33 SI MM HELISAONINA 1985-04-16 21:00:00 TS -16.0155 57.1744 main 459 459 P____P____P_P_ SH331985 -16.1574 57.0426 XX 32 -5 -15.6348 56.7571 2 20 1003 -16.1124 57.8554 1 25 -16.1574 57.0426 TC 32 10 295
1985097S09076 1985 33 SI MM HELISAONINA 1985-04-17 00:00:00 TS -15.8083 56.7159 20 1003 reunion main 488 488 O____O____P_O_ jtwc_sh SH331985 -16.0000 56.6000 XX 30 -5 -15.3000 56.3000 2 20 1003 1.50000 1.50000 -15.9333 57.3634 1 25 -16.0000 56.6000 TC 30 10 292
1985097S09076 1985 33 SI MM HELISAONINA 1985-04-17 03:00:00 TS -15.6581 56.2388 main 511 511 P____P____P_P_ SH331985 -15.8074 56.1500 XX 30 -5 -15.2550 55.7654 2 28 -15.7626 56.8897 1 25 -15.8074 56.1500 TC 30 10 287
1985097S09076 1985 33 SI MM HELISAONINA 1985-04-17 06:00:00 TS -15.5250 55.7500 36 reunion main 545 514 O____O____O_O_ jtwc_sh SH331985 -15.6000 55.7000 XX 30 -5 -15.3000 55.2000 2 36 9.90000 -15.6000 56.4000 1 25 -15.6000 55.7000 TC 30 10 287
1985097S09076 1985 33 SI MM HELISAONINA 1985-04-17 09:00:00 TS -15.3636 55.2359 main 504 450 P____P____P_P_ SH331985 -15.3924 55.2576 XX 30 -5 -15.2425 54.6349 2 36 -15.4272 55.7936 1 -15.3924 55.2576 TC 30 10 287
1985097S09076 1985 33 SI MM HELISAONINA 1985-04-17 12:00:00 TS -15.2159 54.7187 36 reunion main 450 397 O____O____P_O_ jtwc_sh SH331985 -15.2000 54.8000 XX 30 -5 -15.2000 54.1000 2 36 9.90000 -15.2635 55.1747 1 -15.2000 54.8000 TC 30 10 285
1985097S09076 1985 33 SI MM HELISAONINA 1985-04-17 15:00:00 TS -15.1019 54.2128 main 397 355 P____P____P_P_ SH331985 -15.0424 54.3076 XX 30 -5 -15.2048 53.6424 2 36 -15.1179 54.5935 1 -15.0424 54.3076 TC 30 10 283
1985097S09076 1985 33 SI MM HELISAONINA 1985-04-17 18:00:00 TS -15.0067 53.7600 36 reunion main 355 313 O____O____O_O_ jtwc_sh SH331985 -14.9000 53.8000 XX 30 -5 -15.3000 53.2000 2 36 9.90000 -15.0000 54.1000 1 -14.9000 53.8000 TC 30 9 285
1985097S09076 1985 33 SI MM HELISAONINA 1985-04-17 21:00:00 TS -14.8711 53.3474 main 302 272 P____P____P_P_ SH331985 -14.7198 53.3149 XX 30 -5 -15.5153 52.7154 2 36 -14.8515 53.7283 1 -14.7198 53.3149 TC 30 8 289
1985097S09076 1985 33 SI MM HELISAONINA 1985-04-18 00:00:00 TS -14.7359 52.9539 36 reunion main 274 235 O____O____P_O_ jtwc_sh SH331985 -14.6000 52.8000 XX 30 -5 -15.8000 52.2000 6 36 9.90000 -14.7417 53.4502 1 -14.6000 52.8000 TC 30 8 288
1985097S09076 1985 33 SI MM HELISAONINA 1985-04-18 03:00:00 TS -14.6253 52.5589 main 235 180 P_________P_P_ SH331985 -14.5825 52.2149 XX 30 -5 6 -14.7111 53.2470 1 -14.5825 52.2149 TC 30 8 270
1985097S09076 1985 33 SI MM HELISAONINA 1985-04-18 06:00:00 TS -14.7333 52.1000 main 180 120 O_________O_O_ jtwc_sh SH331985 -14.7000 51.6000 XX 30 -5 -14.8000 53.1000 1 -14.7000 51.6000 TC 30 10 248
1985097S09076 1985 33 SI MM HELISAONINA 1985-04-18 09:00:00 TS -14.9908 51.6042 main 120 75 P_________P_P_ SH331985 -14.9477 50.9329 XX 27 -5 -15.0770 52.9467 1 -14.9477 50.9329 TC 27 11 234
1985097S09076 1985 33 SI MM HELISAONINA 1985-04-18 12:00:00 TS -15.3558 51.2152 main 75 58 O_________P_O_ jtwc_sh SH331985 -15.3000 50.4000 XX 25 -5 -15.4673 52.8456 1 -15.3000 50.4000 TC 25 10 217
1985097S09076 1985 33 SI MM HELISAONINA 1985-04-18 15:00:00 TS -15.7461 51.0040 main 63 63 P_________P_P_ SH331985 -15.6697 50.1077 XX 25 -5 -15.8990 52.7966 1 -15.6697 50.1077 TC 25 8 183
1985097S09076 1985 33 SI MM HELISAONINA 1985-04-18 18:00:00 TS -16.1800 51.1800 main 106 106 O_________O_O_ jtwc_sh SH331985 -16.1000 50.1000 XX 25 -5 -16.3000 52.8000 1 -16.1000 50.1000 TC 25 10 146
1985097S09076 1985 33 SI MM HELISAONINA 1985-04-18 21:00:00 TS -16.6001 51.6128 main 163 163 P_________P_P_ SH331985 -16.5854 50.3718 XX 22 -5 -16.6148 52.8537 1 -16.5854 50.3718 TC 22 12 132
1985097S09076 1985 33 SI MM HELISAONINA 1985-04-19 00:00:00 TS -16.9516 52.0882 main 231 231 O_________P_O_ jtwc_sh SH331985 -17.1000 50.8000 XX 20 -5 -16.8526 52.9470 1 -17.1000 50.8000 TC 20 15 108
1985097S09076 1985 33 SI MM HELISAONINA 1985-04-19 03:00:00 NR -17.0392 53.0668 main 327 327 __________P___ SH331985 XX -5 -17.0392 53.0668 1 TC 11 103
1985097S09076 1985 33 SI MM HELISAONINA 1985-04-19 06:00:00 NR -17.2000 53.2000 main 346 __________O___ XX -5 -17.2000 53.2000 1 4 141

IBTrACS Databaseについて

本データベースは、米国NOAAが公開する1842年以降の世界の熱帯低気圧のベストトラックデータアーカイブInternational Best Track Archive for Climate Stewardship (IBTrACS)を、ウェブで閲覧しやすい形式に変換したものです。

最終更新日:2021-12-06